Huvudsida
METAR-TAF:

METAR-TAF

Flygplatser :

Militär flygplats Cameri

Novara, Italien

latitud: 45-31N, longitud: 008-40E, höjd: 178 m

Aktuellt väderrapport

Denna rapport gjordes för 1 timme och 20 minuter sedan, klockan 12:55 UTC
Vind 5 kt från väst, varierande mellan sydväst och nordväst
Temperatur 31°C
Fuktighet 49%
Tryck 1018 hPa
Sikt 10 km eller mer
Inga moln under 1 500 m eller inga cumulonimbus

METAR: LIMN 241255Z 28005KT 220V320 CAVOK 31/19 Q1018 RMK BKN BKN200 VIS MIN 9999 BLU

Tid: 16:15 (14:15 UTC)

Väderprognos

Denna rapport gjordes för 3 timmar och 15 minuter sedan, klockan 11:00 UTC
Prognos gäller från 24 kl. 12 UTC till 24 kl. 21 UTC
Vind 5 kt från nord
Sikt 10 km eller mer
Inga moln under 1 500 m eller inga cumulonimbus

TAF: LIMN 241100Z 2412/2421 01005KT CAVOK

Aktuella väderrapporter och prognoser från 4000 flygplatser (METAR- och TAF-rapporter).

De tillgängliga stationerna syns som gula och röda prickar på kartan.

För musen över prickarna för att se namnen på stationerna.

Klicka sedan för att få väderrapporter och prognoser.

För att ändra kartan: Klicka på de gröna knapparna med ett svart kors på för att zooma in; den gröna knappen med ett streck på för att zooma ut; eller på de gröna pilarna för angränsande kartor.


METAR-TAF: